Time;durP1;ratioP1;P1;durP2;ratioP2;P2;SDS_P1;SDS_P2;PMS_P1;PMS_P2;Temp;Humidity;BMP_temperature;BMP_pressure;BME280_temperature;BME280_humidity;BME280_pressure;Samples;Min_cycle;Max_cycle;Signal;HPM_P1;HPM_P2
2023/12/25 00:02:20;;;;;;;;;;;;;;;22.34;41.56;100222.53;5036465;28;19955;-46
2023/12/25 00:04:46;;;;;;;;;;;;;;;22.32;41.50;100221.91;5029340;28;20451;-48
2023/12/25 00:07:11;;;;;;;;;;;;;;;22.29;41.65;100230.44;5020253;28;19917;-48
2023/12/25 00:09:36;;;;;;;;;;;;;;;22.28;41.52;100227.97;5029657;28;20011;-49
2023/12/25 00:12:01;;;;;;;;;;;;;;;22.26;41.39;100209.22;5063460;28;19918;-45
2023/12/25 00:14:27;;;;;;;;;;;;;;;22.24;41.55;100235.66;5018201;28;19918;-46
2023/12/25 00:16:52;;;;;;;;;;;;;;;22.21;41.68;100228.78;5046245;28;19952;-47
2023/12/25 00:19:17;;;;;;;;;;;;;;;22.19;41.55;100235.44;5031223;28;19917;-49
2023/12/25 00:21:42;;;;;;;;;;;;;;;22.16;41.63;100250.22;5020859;28;19913;-47
2023/12/25 00:24:07;;;;;;;;;;;;;;;22.17;41.80;100248.34;5022304;28;19920;-47
2023/12/25 00:26:32;;;;;;;;;;;;;;;22.14;41.75;100249.63;5049156;28;20239;-49
2023/12/25 00:28:58;;;;;;;;;;;;;;;22.14;41.78;100244.19;5050718;28;19960;-46
2023/12/25 00:31:23;;;;;;;;;;;;;;;22.13;41.64;100247.09;5059386;28;20443;-51
2023/12/25 00:33:48;;;;;;;;;;;;;;;22.11;41.65;100249.97;5028083;28;19977;-51
2023/12/25 00:36:13;;;;;;;;;;;;;;;22.09;42.04;100246.66;5007345;28;19936;-49
2023/12/25 00:38:39;;;;;;;;;;;;;;;22.10;42.08;100244.78;5014660;28;20551;-49
2023/12/25 00:41:04;;;;;;;;;;;;;;;22.08;41.92;100261.22;5021081;28;19925;-51
2023/12/25 00:43:29;;;;;;;;;;;;;;;22.06;41.93;100263.31;5011141;28;20384;-49
2023/12/25 00:45:54;;;;;;;;;;;;;;;22.04;41.82;100253.72;5025652;28;20016;-48
2023/12/25 00:48:20;;;;;;;;;;;;;;;22.03;41.85;100262.88;5029845;28;19920;-51
2023/12/25 00:50:45;;;;;;;;;;;;;;;22.01;41.71;100273.91;5024132;28;19936;-51
2023/12/25 00:53:10;;;;;;;;;;;;;;;22.00;41.88;100258.69;5016542;28;19923;-51
2023/12/25 00:55:35;;;;;;;;;;;;;;;22.00;42.04;100271.41;5029411;28;19936;-47
2023/12/25 00:58:00;;;;;;;;;;;;;;;21.96;42.08;100271.84;5030502;28;20020;-50
2023/12/25 01:00:26;;;;;;;;;;;;;;;21.95;41.73;100274.72;5012200;28;19917;-47
2023/12/25 01:02:51;;;;;;;;;;;;;;;21.94;41.82;100279.31;5031857;28;19954;-47
2023/12/25 01:05:16;;;;;;;;;;;;;;;21.92;42.07;100273.28;5021629;28;20502;-48
2023/12/25 01:07:41;;;;;;;;;;;;;;;21.92;41.93;100277.84;5010482;28;19913;-50
2023/12/25 01:10:06;;;;;;;;;;;;;;;21.90;41.81;100291.56;5022419;28;19939;-48
2023/12/25 01:12:32;;;;;;;;;;;;;;;21.89;41.74;100262.84;5036670;28;19912;-47
2023/12/25 01:14:57;;;;;;;;;;;;;;;21.88;41.95;100271.19;5031025;28;19914;-48
2023/12/25 01:17:23;;;;;;;;;;;;;;;21.87;41.90;100274.91;5026528;28;19914;-49
2023/12/25 01:19:49;;;;;;;;;;;;;;;21.86;41.99;100270.53;5036519;28;19925;-45
2023/12/25 01:22:14;;;;;;;;;;;;;;;21.84;41.99;100265.34;5012603;28;20354;-48
2023/12/25 01:24:39;;;;;;;;;;;;;;;21.84;41.93;100269.91;5013831;28;20273;-48
2023/12/25 01:27:04;;;;;;;;;;;;;;;21.83;41.99;100284.47;5039601;28;19942;-46
2023/12/25 01:29:29;;;;;;;;;;;;;;;21.81;41.78;100287.38;5026016;28;19914;-48
2023/12/25 01:31:54;;;;;;;;;;;;;;;21.80;41.75;100293.00;5017330;28;19920;-50
2023/12/25 01:34:20;;;;;;;;;;;;;;;21.79;41.93;100288.63;5042556;28;20011;-46
2023/12/25 01:36:45;;;;;;;;;;;;;;;21.77;42.04;100278.00;5018849;28;19917;-47
2023/12/25 01:39:12;;;;;;;;;;;;;;;21.75;42.06;100285.50;5014674;28;19913;-48
2023/12/25 01:41:37;;;;;;;;;;;;;;;21.75;41.89;100300.88;5039762;28;19914;-45
2023/12/25 01:44:02;;;;;;;;;;;;;;;21.73;42.03;100290.25;5082775;28;19914;-47
2023/12/25 01:46:28;;;;;;;;;;;;;;;21.73;41.96;100292.13;5026213;28;19917;-44
2023/12/25 01:48:53;;;;;;;;;;;;;;;21.70;42.02;100299.59;5077453;28;20012;-47
2023/12/25 01:51:21;;;;;;;;;;;;;;;21.69;41.90;100308.78;5044204;28;19917;-47
2023/12/25 01:53:46;;;;;;;;;;;;;;;21.68;41.88;100314.41;5035028;28;19936;-45
2023/12/25 01:56:12;;;;;;;;;;;;;;;21.67;42.07;100304.63;5047114;28;20372;-48
2023/12/25 01:58:37;;;;;;;;;;;;;;;21.64;42.25;100316.66;5033441;28;19922;-46
2023/12/25 02:01:02;;;;;;;;;;;;;;;21.64;41.90;100326.66;5008487;28;19918;-45
2023/12/25 02:03:27;;;;;;;;;;;;;;;21.64;41.94;100302.31;5025315;28;19924;-48
2023/12/25 02:05:52;;;;;;;;;;;;;;;21.62;41.82;100312.47;5049336;28;19912;-50
2023/12/25 02:08:18;;;;;;;;;;;;;;;21.60;41.85;100312.69;5060600;28;19912;-50
2023/12/25 02:10:43;;;;;;;;;;;;;;;21.58;41.98;100309.38;5066936;28;20030;-51
2023/12/25 02:13:08;;;;;;;;;;;;;;;21.57;41.86;100315.78;5031962;28;19918;-47
2023/12/25 02:15:33;;;;;;;;;;;;;;;21.56;42.05;100322.25;5013321;28;19940;-45
2023/12/25 02:17:59;;;;;;;;;;;;;;;21.56;42.06;100310.59;5017639;28;19972;-47
2023/12/25 02:20:24;;;;;;;;;;;;;;;21.55;42.08;100315.16;5078988;28;19912;-49
2023/12/25 02:22:49;;;;;;;;;;;;;;;21.53;41.94;100322.63;5051331;28;19914;-50
2023/12/25 02:25:23;;;;;;;;;;;;;;;21.52;41.86;100302.03;5026925;28;20015;-49
2023/12/25 02:27:48;;;;;;;;;;;;;;;21.50;41.92;100306.81;5060853;28;19945;-47
2023/12/25 02:30:14;;;;;;;;;;;;;;;21.50;42.14;100303.28;5069338;28;19920;-49
2023/12/25 02:32:40;;;;;;;;;;;;;;;21.49;42.04;100315.94;5011224;28;19914;-50
2023/12/25 02:35:06;;;;;;;;;;;;;;;21.48;42.24;100319.69;5022782;28;19929;-48
2023/12/25 02:37:31;;;;;;;;;;;;;;;21.46;42.12;100308.25;5020209;28;19913;-50
2023/12/25 02:39:56;;;;;;;;;;;;;;;21.46;42.16;100305.56;5040420;28;19936;-47
2023/12/25 02:42:21;;;;;;;;;;;;;;;21.45;41.84;100315.53;5027755;28;19921;-49
2023/12/25 02:44:47;;;;;;;;;;;;;;;21.44;41.88;100316.56;5023433;28;19914;-47
2023/12/25 02:47:12;;;;;;;;;;;;;;;21.43;41.81;100298.66;5013356;28;19925;-47
2023/12/25 02:49:37;;;;;;;;;;;;;;;21.43;41.94;100297.84;5016032;28;19990;-51
2023/12/25 02:52:02;;;;;;;;;;;;;;;21.42;42.06;100305.13;5031021;28;19914;-48
2023/12/25 02:54:27;;;;;;;;;;;;;;;21.40;42.03;100304.47;5024007;28;19977;-49
2023/12/25 02:56:53;;;;;;;;;;;;;;;21.39;41.88;100300.09;5021255;28;19991;-45
2023/12/25 02:59:18;;;;;;;;;;;;;;;21.37;42.00;100294.06;5041276;28;19914;-49
2023/12/25 03:01:43;;;;;;;;;;;;;;;21.36;41.70;100289.66;5015410;28;19914;-48
2023/12/25 03:04:08;;;;;;;;;;;;;;;21.35;41.88;100288.00;5019525;28;19959;-51
2023/12/25 03:06:33;;;;;;;;;;;;;;;21.33;42.00;100298.19;5036847;28;19940;-49
2023/12/25 03:08:59;;;;;;;;;;;;;;;21.33;41.75;100311.72;5027952;28;19977;-48
2023/12/25 03:11:24;;;;;;;;;;;;;;;21.31;41.69;100311.03;5013746;28;19924;-46
2023/12/25 03:13:49;;;;;;;;;;;;;;;21.30;41.86;100327.47;5037900;28;19919;-47
2023/12/25 03:16:14;;;;;;;;;;;;;;;21.29;41.95;100313.13;5040836;28;19921;-49
2023/12/25 03:18:39;;;;;;;;;;;;;;;21.28;41.84;100324.13;5011925;28;19928;-50
2023/12/25 03:21:04;;;;;;;;;;;;;;;21.26;41.90;100337.00;5039430;28;19963;-51
2023/12/25 03:23:30;;;;;;;;;;;;;;;21.26;41.83;100332.44;5029432;28;19981;-51
2023/12/25 03:25:56;;;;;;;;;;;;;;;21.24;41.92;100334.50;5010110;28;20433;-50
2023/12/25 03:28:23;;;;;;;;;;;;;;;21.23;41.84;100341.75;5028637;28;19917;-49
2023/12/25 03:30:48;;;;;;;;;;;;;;;21.22;42.05;100339.28;5034733;28;19918;-48
2023/12/25 03:33:14;;;;;;;;;;;;;;;21.20;42.11;100342.19;5022390;28;19920;-50
2023/12/25 03:35:39;;;;;;;;;;;;;;;21.19;42.23;100350.47;5040760;28;19914;-50
2023/12/25 03:38:04;;;;;;;;;;;;;;;21.18;42.06;100348.81;5042369;28;19946;-48
2023/12/25 03:40:29;;;;;;;;;;;;;;;21.15;42.31;100352.75;5016377;28;19914;-47
2023/12/25 03:42:54;;;;;;;;;;;;;;;21.16;42.40;100377.91;5020436;28;19917;-49
2023/12/25 03:45:19;;;;;;;;;;;;;;;21.15;42.34;100373.53;5044339;28;19935;-48
2023/12/25 03:47:45;;;;;;;;;;;;;;;21.13;42.22;100364.78;5019162;28;20033;-48
2023/12/25 03:50:10;;;;;;;;;;;;;;;21.12;42.42;100366.66;5049425;28;19916;-47
2023/12/25 03:52:35;;;;;;;;;;;;;;;21.12;42.17;100346.91;5044004;28;20277;-48
2023/12/25 03:55:00;;;;;;;;;;;;;;;21.12;42.25;100341.50;5023702;28;19976;-48
2023/12/25 03:57:25;;;;;;;;;;;;;;;21.10;42.20;100348.94;5013494;28;19926;-49
2023/12/25 03:59:51;;;;;;;;;;;;;;;21.09;42.49;100344.59;5032273;28;19917;-49
2023/12/25 04:02:16;;;;;;;;;;;;;;;21.09;42.28;100350.81;5034106;28;19916;-45
2023/12/25 04:04:41;;;;;;;;;;;;;;;21.08;42.47;100354.56;5022482;28;19913;-45
2023/12/25 04:07:06;;;;;;;;;;;;;;;21.07;42.19;100362.84;5043663;28;20011;-48
2023/12/25 04:09:31;;;;;;;;;;;;;;;21.05;42.51;100370.34;5031656;28;20008;-49
2023/12/25 04:11:56;;;;;;;;;;;;;;;21.05;42.65;100362.22;5018800;28;19937;-47
2023/12/25 04:14:22;;;;;;;;;;;;;;;21.03;42.39;100369.72;5028167;28;20364;-46
2023/12/25 04:16:47;;;;;;;;;;;;;;;21.03;42.32;100364.31;5025524;28;20008;-47
2023/12/25 04:19:12;;;;;;;;;;;;;;;21.02;42.39;100362.59;5014864;28;19913;-48
2023/12/25 04:21:37;;;;;;;;;;;;;;;21.01;42.53;100360.94;5022176;28;19917;-47
2023/12/25 04:24:03;;;;;;;;;;;;;;;20.99;42.65;100366.56;5027010;28;19913;-50
2023/12/25 04:26:28;;;;;;;;;;;;;;;20.98;42.48;100367.56;5012986;28;19944;-48
2023/12/25 04:28:54;;;;;;;;;;;;;;;20.97;42.43;100374.00;5009334;28;19914;-48
2023/12/25 04:31:19;;;;;;;;;;;;;;;20.96;42.71;100369.66;5018068;28;20400;-51
2023/12/25 04:33:44;;;;;;;;;;;;;;;20.95;42.69;100368.81;5033937;28;19965;-49
2023/12/25 04:36:09;;;;;;;;;;;;;;;20.94;42.46;100367.16;5035484;28;19977;-50
2023/12/25 04:38:35;;;;;;;;;;;;;;;20.93;42.63;100365.44;5037303;28;19949;-48
2023/12/25 04:41:01;;;;;;;;;;;;;;;20.92;42.45;100376.47;5015206;28;19921;-49
2023/12/25 04:43:26;;;;;;;;;;;;;;;20.91;42.63;100375.63;5012063;28;19918;-49
2023/12/25 04:45:51;;;;;;;;;;;;;;;20.90;42.67;100378.53;5030597;28;19913;-49
2023/12/25 04:48:16;;;;;;;;;;;;;;;20.89;42.76;100372.28;5027776;28;19914;-45
2023/12/25 04:50:42;;;;;;;;;;;;;;;20.81;42.55;100358.06;5068174;28;19941;-47
2023/12/25 04:53:08;;;;;;;;;;;;;;;20.87;42.54;100373.53;5023516;28;19924;-49
2023/12/25 04:55:33;;;;;;;;;;;;;;;20.84;42.90;100366.63;5051385;28;19914;-46
2023/12/25 04:57:58;;;;;;;;;;;;;;;20.85;42.65;100381.81;5025282;28;20010;-48
2023/12/25 05:00:23;;;;;;;;;;;;;;;20.83;42.78;100373.06;5078726;28;19919;-46
2023/12/25 05:02:49;;;;;;;;;;;;;;;20.82;42.74;100376.81;5029267;28;19916;-45
2023/12/25 05:05:14;;;;;;;;;;;;;;;20.81;42.54;100367.00;5065606;28;20442;-48
2023/12/25 05:07:40;;;;;;;;;;;;;;;20.81;42.93;100379.69;5013580;28;19936;-45
2023/12/25 05:10:05;;;;;;;;;;;;;;;20.80;42.87;100375.31;5028662;28;19921;-48
2023/12/25 05:12:31;;;;;;;;;;;;;;;20.78;42.90;100380.94;5049307;28;19912;-46
2023/12/25 05:14:56;;;;;;;;;;;;;;;20.78;42.81;100380.94;5021405;28;19913;-46
2023/12/25 05:17:21;;;;;;;;;;;;;;;20.77;42.90;100387.34;5048370;28;19935;-45
2023/12/25 05:19:46;;;;;;;;;;;;;;;20.77;42.90;100381.94;5028143;28;19918;-45
2023/12/25 05:22:12;;;;;;;;;;;;;;;20.76;42.94;100384.84;5016896;28;20276;-46
2023/12/25 05:24:37;;;;;;;;;;;;;;;20.74;42.91;100387.75;5069080;28;20004;-47
2023/12/25 05:27:02;;;;;;;;;;;;;;;20.72;43.00;100390.63;5055998;28;19918;-51
2023/12/25 05:29:28;;;;;;;;;;;;;;;20.74;42.98;100403.13;5063848;28;19923;-46
2023/12/25 05:31:53;;;;;;;;;;;;;;;20.73;42.98;100386.09;5056994;28;19916;-47
2023/12/25 05:34:18;;;;;;;;;;;;;;;20.72;42.91;100382.50;5025138;28;19916;-45
2023/12/25 05:36:43;;;;;;;;;;;;;;;20.72;43.03;100392.50;5010219;28;19914;-45
2023/12/25 05:39:09;;;;;;;;;;;;;;;20.71;43.13;100396.22;5021649;28;19973;-46
2023/12/25 05:41:34;;;;;;;;;;;;;;;20.71;43.23;100380.84;5026191;28;19909;-45
2023/12/25 05:43:59;;;;;;;;;;;;;;;20.69;43.27;100384.78;5020343;28;19947;-45
2023/12/25 05:46:24;;;;;;;;;;;;;;;20.70;43.18;100403.50;5018544;28;19988;-45
2023/12/25 05:48:49;;;;;;;;;;;;;;;20.69;43.31;100401.00;5031901;28;19913;-47
2023/12/25 05:51:14;;;;;;;;;;;;;;;20.69;43.07;100403.69;5072737;28;19920;-45
2023/12/25 05:53:40;;;;;;;;;;;;;;;20.69;43.38;100412.63;5013044;28;19925;-46
2023/12/25 05:56:05;;;;;;;;;;;;;;;20.68;43.49;100392.03;5011771;28;19926;-45
2023/12/25 05:58:30;;;;;;;;;;;;;;;20.68;43.46;100391.19;5012728;28;20386;-49
2023/12/25 06:00:55;;;;;;;;;;;;;;;20.66;43.44;100398.69;5015023;28;19957;-45
2023/12/25 06:03:21;;;;;;;;;;;;;;;20.67;43.56;100406.56;5031269;28;19917;-47
2023/12/25 06:05:46;;;;;;;;;;;;;;;20.65;43.76;100405.94;5020603;28;19914;-45
2023/12/25 06:08:11;;;;;;;;;;;;;;;20.66;43.63;100412.19;5012831;28;19930;-46
2023/12/25 06:10:36;;;;;;;;;;;;;;;20.65;43.76;100410.50;5015423;28;20019;-48
2023/12/25 06:13:02;;;;;;;;;;;;;;;20.64;43.86;100415.06;5011781;28;19914;-47
2023/12/25 06:15:27;;;;;;;;;;;;;;;20.65;43.71;100410.50;4998426;28;19980;-48
2023/12/25 06:17:53;;;;;;;;;;;;;;;20.64;43.86;100404.25;5021260;28;19918;-45
2023/12/25 06:20:18;;;;;;;;;;;;;;;20.65;43.65;100410.50;5025912;28;20361;-47
2023/12/25 06:22:43;;;;;;;;;;;;;;;20.62;43.86;100422.53;5012862;28;19964;-47
2023/12/25 06:25:08;;;;;;;;;;;;;;;20.63;43.83;100428.75;5007206;28;19928;-48
2023/12/25 06:27:33;;;;;;;;;;;;;;;20.62;44.07;100437.91;5016542;28;19942;-47
2023/12/25 06:29:59;;;;;;;;;;;;;;;20.61;44.31;100430.84;5007043;28;19946;-48
2023/12/25 06:32:24;;;;;;;;;;;;;;;20.60;44.03;100435.41;5008812;28;19914;-49
2023/12/25 06:34:49;;;;;;;;;;;;;;;20.60;44.20;100430.00;5018399;28;19936;-45
2023/12/25 06:37:14;;;;;;;;;;;;;;;20.59;44.48;100433.72;5007846;28;19925;-50
2023/12/25 06:39:39;;;;;;;;;;;;;;;20.59;44.14;100436.41;5003636;28;20013;-50
2023/12/25 06:42:05;;;;;;;;;;;;;;;20.59;44.30;100430.16;5002875;28;19922;-48
2023/12/25 06:44:30;;;;;;;;;;;;;;;20.60;44.21;100429.13;5000234;28;19925;-49
2023/12/25 06:46:55;;;;;;;;;;;;;;;20.59;44.39;100428.31;5004960;28;19925;-46
2023/12/25 06:49:20;;;;;;;;;;;;;;;20.58;44.58;100421.22;5014509;28;19914;-50
2023/12/25 06:51:45;;;;;;;;;;;;;;;20.58;44.34;100429.34;5018849;28;19922;-47
2023/12/25 06:54:12;;;;;;;;;;;;;;;20.58;44.33;100429.34;5003265;28;19922;-49
2023/12/25 06:56:37;;;;;;;;;;;;;;;20.58;44.55;100437.44;5014742;28;19934;-48
2023/12/25 06:59:02;;;;;;;;;;;;;;;20.57;44.57;100446.59;5013213;28;19939;-47
2023/12/25 07:01:27;;;;;;;;;;;;;;;20.57;44.65;100448.44;5001845;28;20411;-46
2023/12/25 07:03:52;;;;;;;;;;;;;;;20.56;44.29;100438.66;5010279;28;19913;-45
2023/12/25 07:06:18;;;;;;;;;;;;;;;20.56;44.54;100455.72;5016692;28;19919;-50
2023/12/25 07:08:43;;;;;;;;;;;;;;;20.57;44.57;100448.44;5020577;28;20457;-45
2023/12/25 07:11:08;;;;;;;;;;;;;;;20.56;44.65;100452.16;5018900;28;19918;-47
2023/12/25 07:13:33;;;;;;;;;;;;;;;20.55;44.80;100453.19;5019333;28;19914;-49
2023/12/25 07:16:00;;;;;;;;;;;;;;;20.54;44.73;100449.66;5007581;28;19953;-47
2023/12/25 07:18:25;;;;;;;;;;;;;;;20.53;44.81;100458.78;5008769;28;19944;-46
2023/12/25 07:20:50;;;;;;;;;;;;;;;20.53;44.71;100468.75;5011766;28;19912;-47
2023/12/25 07:23:18;;;;;;;;;;;;;;;20.53;44.75;100461.50;5011187;28;19928;-45
2023/12/25 07:25:44;;;;;;;;;;;;;;;20.54;44.78;100471.25;4997270;28;19985;-44
2023/12/25 07:28:09;;;;;;;;;;;;;;;20.54;44.66;100481.22;5026415;28;19917;-47
2023/12/25 07:30:34;;;;;;;;;;;;;;;20.53;44.49;100482.25;5016861;28;19989;-46
2023/12/25 07:32:59;;;;;;;;;;;;;;;20.52;44.85;100488.66;5003777;28;19950;-47
2023/12/25 07:35:26;;;;;;;;;;;;;;;20.50;44.92;100491.56;5020057;28;19916;-45
2023/12/25 07:37:51;;;;;;;;;;;;;;;20.50;45.00;100505.06;5021859;28;19912;-44
2023/12/25 07:40:16;;;;;;;;;;;;;;;20.49;45.02;100497.16;5004999;28;20293;-44
2023/12/25 07:42:43;;;;;;;;;;;;;;;20.48;44.99;100485.53;5017665;28;20549;-45
2023/12/25 07:45:09;;;;;;;;;;;;;;;20.47;45.09;100490.06;5064999;28;19914;-48
2023/12/25 07:47:34;;;;;;;;;;;;;;;20.46;45.07;100493.78;5055356;28;20527;-46
2023/12/25 07:49:59;;;;;;;;;;;;;;;20.46;44.90;100488.38;5020048;28;19917;-50
2023/12/25 07:52:24;;;;;;;;;;;;;;;20.47;44.61;100500.00;5029320;28;19913;-44
2023/12/25 07:54:50;;;;;;;;;;;;;;;20.45;44.79;100494.81;5018808;28;19921;-46
2023/12/25 07:57:16;;;;;;;;;;;;;;;20.45;44.78;100499.38;5030314;28;20521;-47
2023/12/25 07:59:42;;;;;;;;;;;;;;;20.44;44.60;100512.03;5021349;28;19914;-49
2023/12/25 08:02:07;;;;;;;;;;;;;;;20.44;44.50;100514.75;5017971;28;19969;-48
2023/12/25 08:04:32;;;;;;;;;;;;;;;20.43;44.50;100515.78;5006448;28;20087;-47
2023/12/25 08:06:57;;;;;;;;;;;;;;;20.43;44.54;100512.22;5028541;28;20263;-51
2023/12/25 08:09:22;;;;;;;;;;;;;;;20.42;44.61;100514.06;5071856;28;19941;-46
2023/12/25 08:11:47;;;;;;;;;;;;;;;20.43;44.71;100523.00;5030843;28;19921;-51
2023/12/25 08:14:13;;;;;;;;;;;;;;;20.41;44.49;100534.00;5024277;28;19923;-50
2023/12/25 08:16:38;;;;;;;;;;;;;;;20.41;44.59;100531.31;5017468;28;19921;-48
2023/12/25 08:19:03;;;;;;;;;;;;;;;20.42;44.92;100545.66;5005217;28;19988;-48
2023/12/25 08:21:28;;;;;;;;;;;;;;;20.42;44.53;100545.66;5042052;28;20486;-49
2023/12/25 08:23:54;;;;;;;;;;;;;;;20.41;44.74;100533.19;5034480;28;19924;-46
2023/12/25 08:26:19;;;;;;;;;;;;;;;20.40;44.47;100520.72;5015369;28;20374;-49
2023/12/25 08:28:46;;;;;;;;;;;;;;;20.40;44.55;100531.50;5020203;28;19912;-51
2023/12/25 08:31:11;;;;;;;;;;;;;;;20.39;44.63;100533.38;5021353;28;19922;-50
2023/12/25 08:33:36;;;;;;;;;;;;;;;20.39;44.72;100543.31;5041814;28;19999;-49
2023/12/25 08:36:02;;;;;;;;;;;;;;;20.38;44.70;100555.97;5048979;28;19992;-48
2023/12/25 08:38:27;;;;;;;;;;;;;;;20.37;44.54;100548.91;5044486;28;19917;-48
2023/12/25 08:40:53;;;;;;;;;;;;;;;20.36;44.76;100549.94;5018558;28;19963;-48
2023/12/25 08:43:18;;;;;;;;;;;;;;;20.37;44.51;100558.88;5016614;28;20379;-49
2023/12/25 08:45:43;;;;;;;;;;;;;;;20.37;44.66;100561.56;5019580;28;19918;-47
2023/12/25 08:48:08;;;;;;;;;;;;;;;20.36;44.89;100549.94;5085585;28;19924;-47
2023/12/25 08:50:34;;;;;;;;;;;;;;;20.34;44.98;100549.28;5059049;28;19920;-47
2023/12/25 08:52:59;;;;;;;;;;;;;;;20.35;45.00;100545.56;5036096;28;19975;-45
2023/12/25 08:55:24;;;;;;;;;;;;;;;20.34;44.89;100534.94;5014723;28;20389;-49
2023/12/25 08:57:49;;;;;;;;;;;;;;;20.35;45.13;100552.84;5006226;28;19978;-47
2023/12/25 09:00:15;;;;;;;;;;;;;;;20.34;44.97;100551.97;5016222;28;19914;-46
2023/12/25 09:02:40;;;;;;;;;;;;;;;20.33;45.14;100536.81;5008166;28;19916;-47
2023/12/25 09:05:05;;;;;;;;;;;;;;;20.32;45.09;100540.53;5009576;28;19924;-47
2023/12/25 09:07:30;;;;;;;;;;;;;;;20.34;45.08;100551.16;5015147;28;20658;-44
2023/12/25 09:09:55;;;;;;;;;;;;;;;20.32;44.92;100555.91;5020467;28;19957;-44
2023/12/25 09:12:21;;;;;;;;;;;;;;;20.32;45.34;100572.94;5007012;28;19914;-46
2023/12/25 09:14:46;;;;;;;;;;;;;;;20.32;45.29;100567.53;5007349;28;20015;-48
2023/12/25 09:17:11;;;;;;;;;;;;;;;20.32;45.36;100564.84;5013721;28;20490;-44
2023/12/25 09:19:36;;;;;;;;;;;;;;;20.32;45.16;100577.50;5015491;28;19913;-47
2023/12/25 09:22:03;;;;;;;;;;;;;;;20.32;45.30;100586.44;5009887;28;19983;-47
2023/12/25 09:24:28;;;;;;;;;;;;;;;20.33;45.29;100587.28;5018349;28;19929;-46
2023/12/25 09:26:53;;;;;;;;;;;;;;;20.33;44.96;100581.88;5013961;28;19917;-45
2023/12/25 09:29:19;;;;;;;;;;;;;;;20.32;45.31;100582.91;5005094;28;20790;-48
2023/12/25 09:31:44;;;;;;;;;;;;;;;20.32;45.12;100582.91;5019196;28;19917;-47
2023/12/25 09:34:09;;;;;;;;;;;;;;;20.33;45.30;100592.66;5074942;28;19919;-45
2023/12/25 09:36:34;;;;;;;;;;;;;;;20.32;45.25;100591.00;5008155;28;20038;-45
2023/12/25 09:38:59;;;;;;;;;;;;;;;20.30;45.38;100601.97;5007455;28;19926;-46
2023/12/25 09:41:26;;;;;;;;;;;;;;;20.30;45.42;100607.38;5017577;28;20384;-44
2023/12/25 09:43:52;;;;;;;;;;;;;;;20.30;45.07;100598.44;5084356;28;19925;-47
2023/12/25 09:46:17;;;;;;;;;;;;;;;20.31;45.24;100600.13;5015831;28;19914;-45
2023/12/25 09:48:42;;;;;;;;;;;;;;;20.31;45.24;100594.75;5066759;28;19921;-44
2023/12/25 09:51:08;;;;;;;;;;;;;;;20.30;45.32;100588.47;5008358;28;19918;-46
2023/12/25 09:53:34;;;;;;;;;;;;;;;20.31;45.47;100586.63;5009609;28;19980;-44
2023/12/25 09:55:59;;;;;;;;;;;;;;;20.30;45.28;100596.56;5015874;28;19921;-46
2023/12/25 09:58:24;;;;;;;;;;;;;;;20.31;45.61;100602.84;5023896;28;19925;-47
2023/12/25 10:00:49;;;;;;;;;;;;;;;20.30;45.43;100596.56;5017192;28;19925;-45
2023/12/25 10:03:15;;;;;;;;;;;;;;;20.29;45.19;100594.91;5030981;28;19921;-45
2023/12/25 10:05:40;;;;;;;;;;;;;;;20.30;45.17;100599.28;5049022;28;19971;-47
2023/12/25 10:08:05;;;;;;;;;;;;;;;20.30;45.37;100599.28;5013922;28;19920;-46
2023/12/25 10:10:30;;;;;;;;;;;;;;;20.28;45.26;100606.72;5037077;28;20562;-47
2023/12/25 10:12:56;;;;;;;;;;;;;;;20.28;45.01;100611.28;5014886;28;20274;-44
2023/12/25 10:15:22;;;;;;;;;;;;;;;20.28;45.11;100597.78;5088036;28;19916;-49
2023/12/25 10:17:47;;;;;;;;;;;;;;;20.26;45.34;100600.66;5017042;28;20009;-48
2023/12/25 10:20:17;;;;;;;;;;;;;;;20.26;45.12;100597.97;5030548;28;19993;-48
2023/12/25 10:22:43;;;;;;;;;;;;;;;20.26;45.54;100595.25;5014282;28;20012;-46
2023/12/25 10:25:09;;;;;;;;;;;;;;;20.26;45.51;100599.81;5020134;28;19963;-46
2023/12/25 10:27:36;;;;;;;;;;;;;;;20.26;45.21;100603.38;5076767;28;20424;-46
2023/12/25 10:30:03;;;;;;;;;;;;;;;20.25;45.37;100603.56;5067403;28;19918;-48
2023/12/25 10:32:28;;;;;;;;;;;;;;;20.25;45.40;100603.56;5083608;28;19917;-50
2023/12/25 10:35:04;;;;;;;;;;;;;;;20.23;45.17;100609.16;5022913;28;19922;-45
2023/12/25 10:37:29;;;;;;;;;;;;;;;20.23;45.17;100620.78;5067334;28;19912;-46
2023/12/25 10:39:55;;;;;;;;;;;;;;;20.22;45.42;100610.19;5013294;28;19920;-46
2023/12/25 10:42:20;;;;;;;;;;;;;;;20.23;45.21;100609.16;5037576;28;19908;-48
2023/12/25 10:44:45;;;;;;;;;;;;;;;20.20;45.18;100607.66;5065054;28;19918;-47
2023/12/25 10:47:10;;;;;;;;;;;;;;;20.21;45.18;100606.63;5078220;28;19952;-50
2023/12/25 10:49:36;;;;;;;;;;;;;;;20.20;45.08;100599.56;5028589;28;19961;-45
2023/12/25 10:52:01;;;;;;;;;;;;;;;20.21;45.28;100606.63;5068047;28;19921;-46
2023/12/25 10:54:26;;;;;;;;;;;;;;;20.21;45.40;100612.00;5071521;28;19920;-47
2023/12/25 10:56:51;;;;;;;;;;;;;;;20.21;45.20;100605.78;5066864;28;19926;-48
2023/12/25 10:59:24;;;;;;;;;;;;;;;20.21;45.11;100600.38;5065079;28;19921;-47
2023/12/25 11:01:49;;;;;;;;;;;;;;;20.23;45.28;100604.59;5011838;28;19918;-48
2023/12/25 11:04:15;;;;;;;;;;;;;;;20.25;45.39;100590.06;5069491;28;19989;-48
2023/12/25 11:06:40;;;;;;;;;;;;;;;20.26;44.96;100589.88;5011743;28;20393;-48
2023/12/25 11:09:06;;;;;;;;;;;;;;;20.29;45.18;100580.56;5007748;28;19922;-48
2023/12/25 11:11:31;;;;;;;;;;;;;;;20.31;45.23;100573.13;5067136;28;19928;-49
2023/12/25 11:13:57;;;;;;;;;;;;;;;20.34;45.15;100570.03;5035045;28;20045;-47
2023/12/25 11:16:22;;;;;;;;;;;;;;;20.37;44.90;100572.38;5019854;28;19921;-46
2023/12/25 11:18:47;;;;;;;;;;;;;;;20.38;45.02;100577.59;5027162;28;19920;-47
2023/12/25 11:21:18;;;;;;;;;;;;;;;20.41;45.12;100595.28;5071464;28;19979;-45
2023/12/25 11:23:44;;;;;;;;;;;;;;;20.43;44.82;100586.00;5013023;28;19918;-45
2023/12/25 11:26:12;;;;;;;;;;;;;;;20.46;45.20;100584.75;5066367;28;19943;-45
2023/12/25 11:28:41;;;;;;;;;;;;;;;20.48;45.72;100585.47;5028915;28;20345;-49
2023/12/25 11:31:07;;;;;;;;;;;;;;;20.51;45.78;100589.63;5028105;28;20010;-44
2023/12/25 11:33:47;;;;;;;;;;;;;;;20.54;45.89;100595.50;5024124;28;20265;-46
2023/12/25 11:36:13;;;;;;;;;;;;;;;20.57;45.49;100591.59;5021751;28;19914;-45
2023/12/25 11:38:40;;;;;;;;;;;;;;;20.60;45.84;100588.50;5037754;28;19925;-47
2023/12/25 11:41:05;;;;;;;;;;;;;;;20.64;45.48;100595.19;5015056;28;19967;-46
2023/12/25 11:43:31;;;;;;;;;;;;;;;20.67;45.61;100597.53;5086290;28;19913;-47
2023/12/25 11:45:57;;;;;;;;;;;;;;;20.71;45.54;100599.69;5027611;28;19917;-50
2023/12/25 11:48:23;;;;;;;;;;;;;;;20.74;45.49;100587.66;5016202;28;19916;-50
2023/12/25 11:50:48;;;;;;;;;;;;;;;20.78;45.55;100599.78;5035833;28;19995;-50
2023/12/25 11:53:32;;;;;;;;;;;;;;;20.82;45.41;100584.03;5069554;28;19918;-48
2023/12/25 11:55:58;;;;;;;;;;;;;;;20.87;45.25;100592.41;5059598;28;19939;-49
2023/12/25 11:58:23;;;;;;;;;;;;;;;20.91;45.15;100599.94;5059699;28;20334;-48
2023/12/25 12:00:48;;;;;;;;;;;;;;;20.95;45.20;100597.69;5066821;28;19921;-50
2023/12/25 12:03:13;;;;;;;;;;;;;;;20.99;44.98;100590.06;5009067;28;20191;-48
2023/12/25 12:05:41;;;;;;;;;;;;;;;21.02;44.93;100589.66;5028228;28;19963;-47
2023/12/25 12:08:07;;;;;;;;;;;;;;;21.06;44.64;100590.94;5040830;28;20013;-48
2023/12/25 12:10:32;;;;;;;;;;;;;;;21.10;44.64;100593.06;5045336;28;19917;-45
2023/12/25 12:12:57;;;;;;;;;;;;;;;21.13;44.35;100579.19;5040131;28;20446;-49
2023/12/25 12:15:22;;;;;;;;;;;;;;;21.16;44.26;100577.97;5023102;28;19920;-48
2023/12/25 12:17:48;;;;;;;;;;;;;;;21.18;44.30;100579.44;5069428;28;19960;-51
2023/12/25 12:20:13;;;;;;;;;;;;;;;21.21;44.30;100579.06;5012850;28;20027;-55
2023/12/25 12:22:38;;;;;;;;;;;;;;;21.25;44.20;100575.97;5091756;28;19923;-54
2023/12/25 12:25:13;;;;;;;;;;;;;;;21.27;43.91;100588.25;5052550;28;19923;-56
2023/12/25 12:27:38;;;;;;;;;;;;;;;21.31;43.82;100599.53;5041207;28;19914;-56